• Join FlightAware (Why Join?)
  • Login
  • US Flag 
02:55AM EDT


 

Airport Tracker/Info


-or-


 

Live Flight TrackerFlight Track Log ✈ CJT574 ✈ 26-Jun-2013 ✈ CYEG - CYWG

Flight Track Log - Related Links

Times and Time Zones

All times are in EDT time to prevent confusion due to time zone crossing. See the CJT574 flight status page for this flight to view local times or setup timezone preferences in your user account.

Time Position Orientation Groundspeed Altitude Reporting Facility
EDT Latitude Longitude Course Direction KTS MPH feet Rate Location/Type
11:45PM 53.3000 -113.6333 349° North 160 184 3,500  Level Edmonton Center
11:46PM 53.3500 -113.6500 349° North 170 196 4,900 1,200 Climbing Edmonton Center
11:47PM 53.3500 -113.5667 90° East 210 242 6,000 1,140 Climbing Edmonton Center
11:48PM 53.3333 -113.4500 103° East 280 322 7,200 1,560 Climbing Edmonton Center
11:49PM 53.3333 -113.3000 90° East 290 334 9,200 1,800 Climbing Edmonton Center
11:50PM 53.3167 -113.1667 102° East 330 380 10,900 1,440 Climbing Edmonton Center
11:51PM 53.2833 -112.9833 107° East 400 460 12,100 1,860 Climbing Edmonton Center
11:52PM 53.2833 -112.7833 90° East 400 460 14,700 2,520 Climbing Edmonton Center
11:53PM 53.2667 -112.5833 98° East 410 472 17,200 2,100 Climbing Edmonton Center
11:54PM 53.2500 -112.4000 99° East 410 472 19,000 1,920 Climbing Edmonton Center
11:55PM 53.2167 -112.2000 105° East 430 495 21,100 1,620 Climbing Edmonton Center
11:56PM 53.1833 -112.0333 108° East 430 495 22,300 960 Climbing Edmonton Center
11:57PM 53.1500 -111.8000 103° East 440 506 23,100 1,080 Climbing Edmonton Center
11:58PM 53.1000 -111.6167 114° Southeast 450 518 24,500 1,200 Climbing Edmonton Center
11:59PM 53.0667 -111.4167 105° East 460 529 25,500 900 Climbing Edmonton Center
12:00AM 53.0333 -111.2167 105° East 460 529 26,300 840 Climbing Edmonton Center
12:01AM 52.9833 -111.0000 111° Southeast 470 541 27,200 900 Climbing Edmonton Center
12:02AM 52.9333 -110.7667 109° East 480 552 28,100 960 Climbing Edmonton Center
12:03AM 52.9167 -110.5500 97° East 490 564 29,200 960 Climbing Edmonton Center
12:04AM 52.8667 -110.3167 109° East 500 575 30,100 840 Climbing Edmonton Center
12:05AM 52.8333 -110.1167 105° East 500 575 30,900 780 Climbing Edmonton Center
12:06AM 52.7833 -109.8833 109° East 500 575 31,700 900 Climbing Edmonton Center
12:07AM 52.7500 -109.6500 103° East 500 575 32,800 900 Climbing Edmonton Center
12:08AM 52.7000 -109.4333 111° Southeast 500 575 33,600 720 Climbing Edmonton Center
12:09AM 52.6833 -109.2000 97° East 500 575 34,300 600 Climbing Edmonton Center
12:10AM 52.6333 -108.9833 111° Southeast 500 575 34,800 300 Climbing Edmonton Center
12:11AM 52.6000 -108.7833 105° East 500 575 35,000 60 Climbing Edmonton Center
12:12AM 52.5500 -108.5167 107° East 510 587 35,000  Level Edmonton Center
12:13AM 52.5167 -108.3333 107° East 510 587 35,000  Level Edmonton Center
12:14AM 52.4833 -108.1000 103° East 510 587 35,000  Level Edmonton Center
12:15AM 52.4333 -107.8667 109° East 500 575 35,000  Level Edmonton Center
12:16AM 52.3833 -107.6500 111° Southeast 500 575 35,000  Level Edmonton Center
12:17AM 52.3667 -107.4333 97° East 500 575 35,000  Level Edmonton Center
12:18AM 52.3167 -107.2000 109° East 500 575 35,000  Level Edmonton Center
12:19AM 52.2667 -106.9833 111° Southeast 500 575 35,000  Level Edmonton Center
12:20AM 52.2333 -106.7833 105° East 500 575 35,000  Level Edmonton Center
12:21AM 52.1833 -106.5333 108° East 510 587 35,000  Level Edmonton Center
12:22AM 52.1333 -106.3333 112° Southeast 500 575 35,000  Level Edmonton Center
12:23AM 52.1000 -106.1167 104° East 500 575 35,000  Level Edmonton Center
12:24AM 52.0667 -105.9000 104° East 500 575 35,000  Level Edmonton Center
12:25AM 52.0167 -105.6833 110° East 500 575 35,000  Level Edmonton Center
12:26AM 51.9667 -105.4500 109° East 500 575 35,000  Level Edmonton Center
12:27AM 51.9167 -105.2333 110° East 500 575 35,000  Level Edmonton Center
12:28AM 51.8833 -105.0500 106° East 500 575 35,000  Level Edmonton Center
12:29AM 51.8333 -104.8000 108° East 500 575 35,000  Level Edmonton Center
12:30AM 51.7833 -104.6167 114° Southeast 500 575 35,000  Level Edmonton Center
12:31AM 51.7500 -104.4000 104° East 500 575 35,000  Level Edmonton Center
12:32AM 51.6833 -104.1667 115° Southeast 500 575 35,000  Level Edmonton Center
12:33AM 51.6333 -103.9833 114° Southeast 500 575 35,000  Level Edmonton Center
12:34AM 51.6000 -103.7500 103° East 500 575 35,000  Level Edmonton Center
12:35AM 51.5500 -103.5500 112° Southeast 500 575 35,000  Level Edmonton Center
12:36AM 51.5000 -103.3167 109° East 500 575 35,000  Level Edmonton Center
12:37AM 51.4333 -103.1167 118° Southeast 510 587 35,000  Level Edmonton Center
12:38AM 51.4000 -102.8833 103° East 500 575 35,000  Level Edmonton Center
12:39AM 51.3500 -102.7000 114° Southeast 510 587 35,000  Level Edmonton Center
12:40AM 51.3167 -102.4833 104° East 510 587 35,000  Level Edmonton Center
12:41AM 51.2500 -102.2667 116° Southeast 510 587 35,000  Level Edmonton Center
12:42AM 51.2000 -102.0333 109° East 510 587 35,000  Level Edmonton Center
12:43AM 51.1500 -101.8500 113° Southeast 510 587 35,000  Level Edmonton Center
12:44AM 51.0833 -101.6000 113° Southeast 510 587 35,000  Level Edmonton Center
12:45AM 51.0500 -101.4000 105° East 510 587 35,000  Level Edmonton Center
12:46AM 50.9833 -101.2167 120° Southeast 510 587 35,000  Level Edmonton Center
12:47AM 50.9333 -100.9833 109° East 520 598 35,000  Level Edmonton Center
12:48AM 50.8667 -100.7667 116° Southeast 520 598 35,000  Level Edmonton Center
12:49AM 50.8333 -100.5500 104° East 520 598 35,000  Level Winnipeg Center
12:50AM 50.7667 -100.3500 118° Southeast 520 598 35,000  Level Winnipeg Center
12:51AM 50.7000 -100.1333 116° Southeast 510 587 35,000  Level Winnipeg Center
12:52AM 50.6667 -99.9167 104° East 510 587 35,000  Level Winnipeg Center
12:53AM 50.6000 -99.7333 120° Southeast 510 587 35,000 -600 Level Winnipeg Center
12:54AM 50.5333 -99.5167 116° Southeast 510 587 33,900 -1,980 Descending Winnipeg Center
12:55AM 50.4833 -99.3000 110° East 510 587 31,100 -2,760 Descending Winnipeg Center
12:56AM 50.4333 -99.1167 113° Southeast 500 575 28,400 -2,880 Descending Winnipeg Center
12:57AM 50.3833 -98.9000 110° East 480 552 25,400 -2,940 Descending Winnipeg Center
12:58AM 50.3333 -98.7500 118° Southeast 470 541 22,600 -2,880 Descending Winnipeg Center
12:59AM 50.2833 -98.5667 113° Southeast 450 518 19,700 -2,940 Descending Winnipeg Center
01:00AM 50.2333 -98.3833 113° Southeast 430 495 16,800 -2,940 Descending Winnipeg Center
01:01AM 50.1667 -98.2167 122° Southeast 420 483 13,900 -2,700 Descending Winnipeg Center
01:02AM 50.1500 -98.0667 100° East 400 460 11,500 -1,800 Descending Winnipeg Center
01:03AM 50.1000 -97.9000 115° Southeast 360 414 10,400 -1,200 Descending Winnipeg Center
01:04AM 50.0833 -97.7667 101° East 320 368 9,100 -1,560 Descending Winnipeg Center
01:05AM 50.0500 -97.6500 114° Southeast 310 357 7,300 -2,400 Descending Winnipeg Center
01:06AM 50.0333 -97.5167 101° East 300 345 4,400 -1,920 Descending Winnipeg Center
01:07AM 50.0167 -97.4167 105° East 280 322 3,500 -960 Descending Winnipeg Center
01:08AM 49.9667 -97.3333 133° Southeast 220 253 2,500 -1,080 Descending Winnipeg Center
01:09AM 49.9167 -97.2833 147° Southeast 190 219 1,400 -1,140 Descending Winnipeg Center